createdAt,value
2018-06-01T00:01:08.027Z,76.44
2018-06-01T00:03:37.122Z,76.14
2018-06-01T00:06:06.358Z,75.52
2018-06-01T00:08:35.805Z,74.85
2018-06-01T00:11:04.564Z,74.61
2018-06-01T00:13:33.487Z,74.35
2018-06-01T00:16:02.499Z,74.47
2018-06-01T00:18:31.816Z,74.85
2018-06-01T00:21:01.378Z,76.21
2018-06-01T00:23:30.172Z,76.95
2018-06-01T00:25:58.868Z,77.21
2018-06-01T00:28:27.440Z,77.23
2018-06-01T00:30:57.153Z,77.25
2018-06-01T00:33:25.665Z,77.29
2018-06-01T00:35:55.344Z,76.65
2018-06-01T00:38:24.396Z,76.26
2018-06-01T00:40:53.159Z,75.92
2018-06-01T00:43:21.846Z,76.29
2018-06-01T00:45:51.395Z,76.35
2018-06-01T00:48:20.193Z,77.40
2018-06-01T00:50:49.713Z,78.48
2018-06-01T00:53:18.240Z,79.27
2018-06-01T00:55:47.003Z,78.90
2018-06-01T00:58:15.800Z,79.27
2018-06-01T01:00:44.427Z,79.22
2018-06-01T01:03:13.376Z,79.28
2018-06-01T01:05:42.567Z,79.18
2018-06-01T01:08:12.904Z,78.92
2018-06-01T01:10:42.469Z,78.77
2018-06-01T01:13:11.155Z,78.54
2018-06-01T01:15:39.947Z,78.37
2018-06-01T01:18:11.886Z,78.43
2018-06-01T01:20:40.582Z,79.08
2018-06-01T01:23:09.091Z,79.46
2018-06-01T01:25:37.887Z,79.51
2018-06-01T01:28:06.549Z,80.13
2018-06-01T01:30:36.079Z,80.54
2018-06-01T01:33:05.814Z,81.12
2018-06-01T01:35:35.910Z,81.48
2018-06-01T01:38:04.956Z,81.37
2018-06-01T01:40:33.596Z,81.92
2018-06-01T01:43:02.354Z,82.20
2018-06-01T01:45:31.015Z,82.11
2018-06-01T01:47:59.838Z,81.79
2018-06-01T01:50:28.749Z,81.94
2018-06-01T01:52:57.560Z,81.79
2018-06-01T01:55:26.371Z,81.75
2018-06-01T01:57:55.060Z,81.96
2018-06-01T02:00:24.536Z,82.11
2018-06-01T02:02:53.105Z,82.33
2018-06-01T02:05:21.820Z,82.38
2018-06-01T02:07:51.422Z,82.59
2018-06-01T02:10:20.980Z,82.67
2018-06-01T02:12:49.887Z,82.82
2018-06-01T02:15:19.820Z,82.74
2018-06-01T02:17:48.522Z,82.36
2018-06-01T02:20:17.304Z,82.57
2018-06-01T02:22:46.150Z,82.90
2018-06-01T02:25:15.564Z,83.47
2018-06-01T02:27:44.095Z,83.74
2018-06-01T02:30:12.756Z,84.01
2018-06-01T02:32:42.163Z,84.09
2018-06-01T02:35:11.217Z,84.20
2018-06-01T02:37:40.845Z,84.35
2018-06-01T02:40:10.019Z,84.71
2018-06-01T02:42:38.779Z,84.86
2018-06-01T02:45:07.477Z,85.16
2018-06-01T02:47:36.299Z,85.32
2018-06-01T02:50:05.095Z,85.33
2018-06-01T02:52:33.679Z,85.13
2018-06-01T02:55:03.412Z,85.25
2018-06-01T02:57:32.860Z,85.60
2018-06-01T03:00:01.390Z,85.67
2018-06-01T03:02:29.993Z,86.04
2018-06-01T03:04:58.790Z,86.23
2018-06-01T03:07:27.832Z,86.40
2018-06-01T03:09:57.418Z,86.28
2018-06-01T03:12:26.148Z,86.29
2018-06-01T03:14:54.943Z,86.36
2018-06-01T03:17:24.171Z,86.48
2018-06-01T03:19:52.971Z,86.62
2018-06-01T03:22:21.692Z,86.69
2018-06-01T03:24:50.332Z,86.75
2018-06-01T03:27:19.079Z,86.83
2018-06-01T03:29:48.738Z,86.96
2018-06-01T03:32:17.325Z,87.01
2018-06-01T03:34:46.211Z,86.99
2018-06-01T03:37:17.094Z,86.70
2018-06-01T03:39:46.458Z,86.62
2018-06-01T03:42:15.376Z,86.71
2018-06-01T03:44:44.570Z,86.70
2018-06-01T03:47:13.375Z,86.56
2018-06-01T03:49:41.980Z,85.81
2018-06-01T03:52:10.890Z,85.89
2018-06-01T03:54:39.700Z,86.03
2018-06-01T03:57:08.539Z,86.39
2018-06-01T03:59:37.211Z,86.50
2018-06-01T04:02:05.993Z,86.57
2018-06-01T04:04:35.460Z,86.70
2018-06-01T04:07:04.312Z,86.65
2018-06-01T04:09:33.650Z,86.67
2018-06-01T04:12:04.623Z,86.65
2018-06-01T04:14:34.172Z,86.69
2018-06-01T04:17:02.901Z,86.50
2018-06-01T04:19:31.594Z,86.53
2018-06-01T04:22:00.172Z,86.50
2018-06-01T04:24:29.622Z,86.48
2018-06-01T04:26:58.328Z,86.33
2018-06-01T04:29:27.143Z,86.06
2018-06-01T04:31:55.951Z,85.85
2018-06-01T04:34:24.621Z,85.48
2018-06-01T04:36:53.413Z,85.47
2018-06-01T04:39:23.766Z,85.22
2018-06-01T04:41:54.663Z,85.16
2018-06-01T04:44:23.277Z,85.03
2018-06-01T04:46:52.095Z,84.98
2018-06-01T04:49:21.042Z,84.78
2018-06-01T04:51:50.525Z,84.63
2018-06-01T04:54:19.212Z,84.37
2018-06-01T04:56:48.042Z,84.13
2018-06-01T04:59:16.969Z,83.90
2018-06-01T05:01:46.271Z,83.39
2018-06-01T05:04:15.077Z,82.86
2018-06-01T05:06:43.856Z,82.66
2018-06-01T05:09:13.818Z,82.54
2018-06-01T05:11:43.763Z,82.46
2018-06-01T05:14:12.352Z,82.35
2018-06-01T05:16:42.850Z,82.08
2018-06-01T05:19:12.209Z,81.76
2018-06-01T05:21:41.773Z,81.57
2018-06-01T05:24:10.471Z,81.17
2018-06-01T05:26:39.297Z,80.43
2018-06-01T05:29:08.207Z,79.26
2018-06-01T05:31:37.808Z,78.62
2018-06-01T05:34:07.366Z,77.71
2018-06-01T05:36:36.272Z,77.60
2018-06-01T05:39:07.395Z,76.98
2018-06-01T05:41:36.444Z,75.77
2018-06-01T05:44:05.267Z,75.69
2018-06-01T05:46:34.072Z,75.30
2018-06-01T05:49:02.980Z,75.23
2018-06-01T05:51:31.738Z,74.27
2018-06-01T05:54:00.502Z,73.57
2018-06-01T05:56:29.413Z,73.44
2018-06-01T05:58:58.599Z,73.05
2018-06-01T06:01:28.212Z,72.73
2018-06-01T06:03:58.200Z,71.95
2018-06-01T06:06:27.305Z,71.32
2018-06-01T06:08:58.915Z,70.30
2018-06-01T06:11:27.783Z,66.83
2018-06-01T06:13:56.494Z,62.10
2018-06-01T06:16:25.316Z,59.67
2018-06-01T06:18:53.874Z,57.09
2018-06-01T06:21:22.618Z,54.99
2018-06-01T06:23:52.117Z,52.67
2018-06-01T06:26:21.683Z,51.39
2018-06-01T06:28:50.796Z,49.47
2018-06-01T06:31:19.957Z,49.24
2018-06-01T06:33:49.034Z,48.48
2018-06-01T06:36:18.453Z,47.62
2018-06-01T06:38:48.230Z,46.53
2018-06-01T06:41:17.420Z,45.32
2018-06-01T06:43:46.426Z,43.80
2018-06-01T06:46:15.143Z,44.80
2018-06-01T06:48:43.894Z,43.26
2018-06-01T06:51:12.753Z,42.23
2018-06-01T06:53:43.302Z,42.60
2018-06-01T06:56:12.011Z,42.51
2018-06-01T06:58:40.952Z,41.43
2018-06-01T07:01:09.742Z,40.89
2018-06-01T07:03:38.650Z,39.94
2018-06-01T07:06:07.657Z,40.56
2018-06-01T07:08:37.035Z,42.37
2018-06-01T07:11:06.970Z,41.80
2018-06-01T07:13:35.722Z,39.53
2018-06-01T07:16:04.541Z,38.43
2018-06-01T07:18:33.403Z,37.71
2018-06-01T07:21:02.814Z,38.62
2018-06-01T07:23:33.067Z,38.56
2018-06-01T07:26:03.257Z,37.44
2018-06-01T07:28:33.413Z,37.50
2018-06-01T07:31:04.319Z,36.60
2018-06-01T07:33:33.761Z,36.19
2018-06-01T07:36:03.509Z,35.09
2018-06-01T07:38:32.197Z,35.72
2018-06-01T07:41:00.922Z,36.06
2018-06-01T07:43:29.682Z,34.02
2018-06-01T07:45:59.901Z,34.76
2018-06-01T07:48:28.790Z,33.87
2018-06-01T07:50:57.605Z,32.56
2018-06-01T07:53:26.432Z,32.88
2018-06-01T07:55:55.220Z,32.32
2018-06-01T07:58:24.139Z,33.41
2018-06-01T08:00:52.946Z,34.88
2018-06-01T08:03:22.373Z,34.27
2018-06-01T08:05:52.042Z,33.55
2018-06-01T08:08:21.355Z,32.08
2018-06-01T08:10:50.235Z,33.18
2018-06-01T08:13:19.049Z,31.49
2018-06-01T08:15:47.683Z,29.95
2018-06-01T08:18:17.238Z,30.60
2018-06-01T08:20:46.596Z,30.84
2018-06-01T08:23:16.331Z,29.22
2018-06-01T08:25:45.310Z,29.86
2018-06-01T08:28:14.963Z,28.77
2018-06-01T08:30:43.946Z,28.33
2018-06-01T08:33:14.284Z,30.00
2018-06-01T08:35:44.403Z,29.67
2018-06-01T08:38:13.293Z,27.65
2018-06-01T08:40:41.875Z,26.80
2018-06-01T08:43:10.696Z,25.76
2018-06-01T08:45:39.461Z,25.19
2018-06-01T08:48:08.344Z,25.47
2018-06-01T08:50:37.040Z,25.61
2018-06-01T08:53:06.714Z,25.58
2018-06-01T08:55:35.794Z,25.58
2018-06-01T08:58:04.971Z,27.29
2018-06-01T09:00:35.035Z,26.01
2018-06-01T09:03:04.512Z,24.56
2018-06-01T09:05:34.400Z,23.38
2018-06-01T09:08:04.346Z,23.37
2018-06-01T09:10:33.081Z,23.31
2018-06-01T09:13:02.196Z,23.90
2018-06-01T09:15:31.373Z,24.39
2018-06-01T09:18:00.782Z,24.69
2018-06-01T09:20:29.556Z,24.81
2018-06-01T09:22:59.041Z,26.59
2018-06-01T09:25:27.726Z,24.79
2018-06-01T09:27:57.156Z,23.90
2018-06-01T09:30:26.216Z,24.09
2018-06-01T09:32:55.607Z,23.08
2018-06-01T09:35:25.674Z,23.23
2018-06-01T09:37:54.812Z,22.60
2018-06-01T09:40:23.843Z,22.70
2018-06-01T09:42:53.631Z,25.15
2018-06-01T09:45:23.337Z,25.49
2018-06-01T09:47:52.258Z,22.82
2018-06-01T09:50:21.157Z,22.73
2018-06-01T09:52:49.955Z,22.41
2018-06-01T09:55:18.888Z,22.68
2018-06-01T09:57:48.522Z,22.12
2018-06-01T10:00:17.212Z,22.55
2018-06-01T10:02:46.899Z,22.53
2018-06-01T10:05:17.278Z,24.55
2018-06-01T10:07:47.341Z,23.77
2018-06-01T10:10:21.869Z,23.16
2018-06-01T10:12:51.023Z,21.33
2018-06-01T10:15:19.787Z,20.96
2018-06-01T10:17:50.263Z,23.28
2018-06-01T10:20:18.935Z,23.62
2018-06-01T10:22:47.498Z,23.54
2018-06-01T10:25:16.278Z,24.07
2018-06-01T10:27:45.548Z,24.73
2018-06-01T10:30:15.857Z,25.25
2018-06-01T10:32:44.745Z,26.26
2018-06-01T10:35:13.924Z,24.45
2018-06-01T10:37:43.779Z,24.88
2018-06-01T10:40:14.327Z,23.94
2018-06-01T10:42:43.238Z,24.11
2018-06-01T10:45:13.603Z,22.83
2018-06-01T10:47:42.333Z,22.64
2018-06-01T10:50:11.004Z,23.78
2018-06-01T10:52:39.824Z,22.64
2018-06-01T10:55:08.659Z,21.68
2018-06-01T10:57:38.732Z,21.88
2018-06-01T11:00:08.074Z,22.04
2018-06-01T11:02:37.911Z,21.70
2018-06-01T11:05:07.869Z,21.73
2018-06-01T11:07:37.293Z,20.85
2018-06-01T11:10:06.508Z,20.14
2018-06-01T11:12:36.246Z,19.71
2018-06-01T11:15:05.061Z,20.18
2018-06-01T11:17:33.864Z,20.60
2018-06-01T11:20:02.553Z,19.75
2018-06-01T11:22:31.524Z,17.22
2018-06-01T11:25:01.814Z,17.76
2018-06-01T11:27:32.234Z,19.09
2018-06-01T11:30:01.996Z,19.41
2018-06-01T11:32:30.903Z,19.33
2018-06-01T11:35:00.764Z,18.23
2018-06-01T11:37:29.670Z,19.78
2018-06-01T11:39:58.477Z,19.46
2018-06-01T11:42:27.551Z,19.14
2018-06-01T11:44:56.652Z,21.92
2018-06-01T11:47:28.348Z,21.06
2018-06-01T11:49:57.917Z,21.14
2018-06-01T11:52:27.514Z,19.35
2018-06-01T11:54:57.918Z,17.74
2018-06-01T11:57:26.599Z,18.30
2018-06-01T11:59:56.028Z,19.62
2018-06-01T12:02:25.037Z,18.98
2018-06-01T12:04:53.948Z,18.12
2018-06-01T12:07:23.071Z,17.88
2018-06-01T12:09:51.752Z,17.50
2018-06-01T12:12:21.402Z,17.92
2018-06-01T12:14:50.317Z,17.76
2018-06-01T12:17:19.285Z,18.11
2018-06-01T12:19:48.072Z,18.19
2018-06-01T12:22:17.346Z,17.76
2018-06-01T12:24:46.893Z,18.34
2018-06-01T12:27:16.183Z,19.26
2018-06-01T12:29:45.270Z,20.52
2018-06-01T12:32:14.353Z,21.45
2018-06-01T12:34:43.457Z,21.35
2018-06-01T12:37:12.058Z,20.25
2018-06-01T12:39:40.828Z,20.83
2018-06-01T12:42:10.490Z,23.02
2018-06-01T12:44:39.527Z,23.17
2018-06-01T12:47:08.337Z,26.12
2018-06-01T12:49:37.662Z,24.85
2018-06-01T12:52:08.309Z,27.24
2018-06-01T12:54:38.447Z,24.69
2018-06-01T12:57:07.958Z,23.90
2018-06-01T12:59:37.449Z,26.77
2018-06-01T13:02:07.317Z,29.13
2018-06-01T13:04:36.534Z,29.66
2018-06-01T13:07:05.940Z,28.68
2018-06-01T13:09:35.946Z,26.17
2018-06-01T13:12:06.469Z,26.98
2018-06-01T13:14:36.709Z,27.13
2018-06-01T13:17:07.266Z,26.51
2018-06-01T13:19:37.368Z,27.82
2018-06-01T13:22:08.317Z,28.27
2018-06-01T13:24:38.569Z,28.58
2018-06-01T13:27:07.505Z,28.41
2018-06-01T13:29:36.429Z,27.48
2018-06-01T13:32:06.145Z,26.12
2018-06-01T13:34:36.412Z,25.05
2018-06-01T13:37:07.036Z,24.02
2018-06-01T13:39:36.971Z,22.71
2018-06-01T13:42:07.762Z,22.55
2018-06-01T13:44:38.580Z,23.29
2018-06-01T13:47:08.781Z,23.79
2018-06-01T13:49:37.609Z,23.70
2018-06-01T13:52:08.982Z,23.85
2018-06-01T13:54:38.015Z,25.22
2018-06-01T13:57:08.723Z,26.39
2018-06-01T13:59:38.461Z,27.30
2018-06-01T14:02:08.469Z,26.65
2018-06-01T14:04:39.891Z,27.69
2018-06-01T14:07:10.203Z,26.69
2018-06-01T14:09:40.459Z,28.15
2018-06-01T14:12:11.438Z,28.36
2018-06-01T14:14:40.264Z,29.02
2018-06-01T14:17:09.101Z,28.89
2018-06-01T14:19:38.318Z,29.08
2018-06-01T14:22:08.040Z,29.31
2018-06-01T14:24:37.160Z,29.55
2018-06-01T14:27:07.049Z,29.89
2018-06-01T14:29:36.620Z,30.88
2018-06-01T14:32:05.617Z,31.34
2018-06-01T14:34:35.725Z,30.00
2018-06-01T14:37:05.576Z,28.88
2018-06-01T14:39:34.463Z,27.88
2018-06-01T14:42:04.535Z,28.51
2018-06-01T14:44:33.249Z,27.69
2018-06-01T14:47:03.998Z,27.00
2018-06-01T14:49:33.862Z,28.14
2018-06-01T14:52:02.879Z,30.09
2018-06-01T14:54:33.660Z,29.84
2018-06-01T14:57:04.168Z,28.12
2018-06-01T14:59:34.369Z,28.82
2018-06-01T15:02:04.177Z,28.74
2018-06-01T15:04:33.392Z,30.26
2018-06-01T15:07:02.951Z,30.29
2018-06-01T15:09:33.897Z,29.40
2018-06-01T15:12:03.869Z,30.12
2018-06-01T15:14:33.594Z,29.69
2018-06-01T15:17:03.694Z,30.16
2018-06-01T15:19:34.482Z,29.29
2018-06-01T15:22:05.350Z,30.30
2018-06-01T15:24:35.121Z,29.91
2018-06-01T15:27:04.842Z,30.47
2018-06-01T15:29:34.340Z,30.67
2018-06-01T15:32:05.600Z,31.01
2018-06-01T15:34:34.492Z,32.31
2018-06-01T15:37:04.103Z,31.25
2018-06-01T15:39:33.858Z,31.56
2018-06-01T15:42:02.891Z,31.69
2018-06-01T15:44:31.837Z,32.59
2018-06-01T15:47:01.809Z,31.59
2018-06-01T15:49:31.689Z,31.26
2018-06-01T15:52:01.061Z,32.17
2018-06-01T15:54:31.261Z,32.19
2018-06-01T15:57:00.056Z,33.21
2018-06-01T15:59:28.907Z,33.39
2018-06-01T16:01:57.853Z,33.37
2018-06-01T16:04:27.633Z,34.09
2018-06-01T16:06:57.772Z,34.35
2018-06-01T16:09:27.989Z,34.21
2018-06-01T16:11:56.797Z,34.26
2018-06-01T16:14:26.632Z,33.41
2018-06-01T16:16:56.872Z,34.41
2018-06-01T16:19:26.828Z,33.95
2018-06-01T16:21:56.360Z,34.28
2018-06-01T16:24:27.317Z,34.63
2018-06-01T16:26:57.080Z,33.71
2018-06-01T16:29:26.867Z,35.27
2018-06-01T16:31:55.812Z,35.31
2018-06-01T16:34:26.728Z,35.65
2018-06-01T16:36:55.710Z,36.28
2018-06-01T16:39:25.708Z,36.80
2018-06-01T16:41:54.839Z,37.18
2018-06-01T16:44:24.963Z,37.19
2018-06-01T16:46:54.254Z,38.23
2018-06-01T16:49:23.537Z,38.11
2018-06-01T16:51:53.090Z,38.49
2018-06-01T16:54:22.501Z,39.30
2018-06-01T16:56:53.065Z,40.33
2018-06-01T16:59:22.143Z,39.82
2018-06-01T17:01:52.174Z,39.98
2018-06-01T17:04:21.149Z,40.76
2018-06-01T17:06:51.735Z,40.71
2018-06-01T17:09:22.727Z,40.96
2018-06-01T17:11:52.959Z,41.84
2018-06-01T17:14:23.484Z,41.74
2018-06-01T17:16:53.280Z,42.53
2018-06-01T17:19:24.762Z,42.87
2018-06-01T17:21:55.066Z,43.98
2018-06-01T17:24:24.429Z,44.19
2018-06-01T17:26:53.229Z,44.57
2018-06-01T17:29:23.754Z,44.88
2018-06-01T17:31:54.325Z,44.92
2018-06-01T17:34:24.277Z,45.87
2018-06-01T17:36:54.103Z,45.55
2018-06-01T17:39:24.419Z,45.92
2018-06-01T17:41:55.457Z,46.62
2018-06-01T17:44:25.210Z,47.02
2018-06-01T17:46:54.183Z,47.69
2018-06-01T17:49:23.462Z,48.55
2018-06-01T17:51:52.816Z,49.41
2018-06-01T17:54:22.977Z,48.72
2018-06-01T17:56:52.105Z,48.49
2018-06-01T17:59:23.017Z,48.69
2018-06-01T18:01:52.483Z,49.09
2018-06-01T18:04:22.862Z,49.15
2018-06-01T18:06:53.087Z,49.06
2018-06-01T18:09:22.468Z,48.37
2018-06-01T18:11:52.268Z,48.33
2018-06-01T18:14:22.589Z,48.13
2018-06-01T18:16:52.171Z,48.05
2018-06-01T18:19:22.125Z,47.77
2018-06-01T18:21:51.499Z,47.86
2018-06-01T18:24:23.065Z,48.04
2018-06-01T18:26:53.123Z,48.18
2018-06-01T18:29:23.641Z,48.70
2018-06-01T18:31:52.672Z,48.59
2018-06-01T18:34:22.496Z,48.86
2018-06-01T18:36:51.824Z,48.90
2018-06-01T18:39:20.974Z,49.11
2018-06-01T18:41:49.836Z,49.86
2018-06-01T18:44:20.109Z,50.96
2018-06-01T18:46:49.432Z,51.62
2018-06-01T18:49:18.553Z,51.58
2018-06-01T18:51:48.556Z,50.99
2018-06-01T18:54:18.746Z,51.65
2018-06-01T18:56:47.585Z,52.42
2018-06-01T18:59:17.451Z,53.31
2018-06-01T19:01:46.513Z,56.00
2018-06-01T19:04:15.360Z,57.98
2018-06-01T19:06:46.003Z,55.95
2018-06-01T19:09:15.681Z,56.76
2018-06-01T19:11:44.787Z,57.13
2018-06-01T19:14:13.905Z,57.30
2018-06-01T19:16:43.556Z,57.82
2018-06-01T19:19:13.380Z,57.93
2018-06-01T19:21:43.095Z,57.92
2018-06-01T19:24:11.966Z,57.89
2018-06-01T19:26:42.077Z,58.02
2018-06-01T19:29:10.911Z,57.81
2018-06-01T19:31:40.156Z,57.90
2018-06-01T19:34:09.306Z,59.10
2018-06-01T19:36:41.190Z,60.11
2018-06-01T19:39:10.450Z,61.25
2018-06-01T19:41:40.489Z,60.21
2018-06-01T19:44:11.059Z,59.97
2018-06-01T19:46:41.047Z,62.08
2018-06-01T19:49:11.098Z,62.45
2018-06-01T19:51:42.927Z,61.99
2018-06-01T19:54:11.814Z,61.66
2018-06-01T19:56:41.383Z,60.47
2018-06-01T19:59:11.273Z,63.76
2018-06-01T20:01:41.052Z,66.00
2018-06-01T20:04:10.907Z,65.81
2018-06-01T20:06:41.131Z,65.64
2018-06-01T20:09:11.412Z,66.84
2018-06-01T20:11:41.068Z,67.56
2018-06-01T20:14:10.870Z,67.80
2018-06-01T20:16:39.613Z,69.04
2018-06-01T20:19:08.357Z,67.28
2018-06-01T20:21:37.682Z,64.59
2018-06-01T20:24:06.709Z,67.25
2018-06-01T20:26:35.587Z,67.29
2018-06-01T20:29:05.531Z,69.43
2018-06-01T20:31:34.713Z,70.92
2018-06-01T20:34:04.492Z,71.69
2018-06-01T20:36:33.948Z,71.77
2018-06-01T20:39:03.745Z,71.86
2018-06-01T20:41:33.368Z,70.27
2018-06-01T20:44:02.604Z,70.42
2018-06-01T20:46:31.860Z,69.10
2018-06-01T20:49:01.937Z,68.41
2018-06-01T20:51:32.486Z,68.63
2018-06-01T20:54:02.391Z,69.94
2018-06-01T20:56:32.135Z,70.04
2018-06-01T20:59:02.111Z,68.67
2018-06-01T21:01:32.187Z,67.82
2018-06-01T21:04:02.646Z,67.41
2018-06-01T21:06:32.663Z,67.49
2018-06-01T21:09:02.960Z,67.68
2018-06-01T21:11:33.703Z,68.43
2018-06-01T21:14:02.783Z,69.48
2018-06-01T21:16:31.868Z,69.71
2018-06-01T21:19:01.827Z,69.76
2018-06-01T21:21:31.602Z,69.84
2018-06-01T21:24:00.422Z,70.02
2018-06-01T21:26:29.335Z,70.33
2018-06-01T21:28:59.382Z,70.69
2018-06-01T21:31:28.947Z,71.00
2018-06-01T21:33:58.523Z,70.83
2018-06-01T21:36:27.870Z,70.71
2018-06-01T21:38:57.085Z,70.63
2018-06-01T21:41:27.404Z,70.58
2018-06-01T21:43:56.789Z,70.88
2018-06-01T21:46:25.736Z,70.91
2018-06-01T21:48:54.557Z,71.40
2018-06-01T21:51:23.307Z,72.01
2018-06-01T21:53:52.039Z,72.00
2018-06-01T21:56:22.813Z,72.06
2018-06-01T21:58:52.702Z,71.94
2018-06-01T22:01:21.635Z,71.24
2018-06-01T22:03:51.069Z,71.04
2018-06-01T22:06:20.833Z,71.12
2018-06-01T22:08:50.039Z,71.25
2018-06-01T22:11:19.507Z,71.19
2018-06-01T22:13:48.566Z,70.84
2018-06-01T22:16:18.177Z,70.77
2018-06-01T22:18:47.132Z,70.67
2018-06-01T22:21:15.952Z,70.77
2018-06-01T22:23:44.878Z,70.93
2018-06-01T22:26:14.866Z,71.05
2018-06-01T22:28:45.138Z,70.81
2018-06-01T22:31:13.949Z,70.80
2018-06-01T22:33:42.963Z,71.06
2018-06-01T22:36:11.854Z,71.28
2018-06-01T22:38:42.048Z,71.41
2018-06-01T22:41:11.042Z,71.42
2018-06-01T22:43:40.865Z,71.56
2018-06-01T22:46:10.791Z,71.00
2018-06-01T22:48:39.693Z,71.08
2018-06-01T22:51:08.692Z,71.06
2018-06-01T22:53:39.270Z,71.59
2018-06-01T22:56:08.332Z,71.80
2018-06-01T22:58:37.919Z,71.94
2018-06-01T23:01:07.380Z,72.20
2018-06-01T23:03:36.859Z,72.13
2018-06-01T23:06:05.918Z,72.38
2018-06-01T23:08:34.596Z,72.92
2018-06-01T23:11:03.389Z,73.42
2018-06-01T23:13:32.063Z,73.89
2018-06-01T23:16:01.337Z,74.24
2018-06-01T23:18:30.340Z,74.75
2018-06-01T23:20:58.940Z,75.01
2018-06-01T23:23:28.141Z,75.57
2018-06-01T23:25:57.592Z,76.79
2018-06-01T23:28:26.722Z,76.97
2018-06-01T23:30:55.741Z,77.03
2018-06-01T23:33:24.947Z,77.04
2018-06-01T23:35:54.514Z,77.38
2018-06-01T23:38:23.225Z,77.27
2018-06-01T23:40:51.996Z,77.21
2018-06-01T23:43:20.859Z,76.91
2018-06-01T23:45:49.800Z,77.10
2018-06-01T23:48:18.572Z,77.47
2018-06-01T23:50:47.316Z,77.68
2018-06-01T23:53:17.067Z,78.20
2018-06-01T23:55:47.138Z,78.36
2018-06-01T23:58:16.589Z,78.90
